sensor_id;sensor_type;location;lat;lon;timestamp;temperature;humidity
22173;DHT22;11252;50.596;17.648;2023-10-08T00:01:10;15.40;92.20
22173;DHT22;11252;50.596;17.648;2023-10-08T00:03:45;15.30;92.20
22173;DHT22;11252;50.596;17.648;2023-10-08T00:06:17;15.30;92.20
22173;DHT22;11252;50.596;17.648;2023-10-08T00:08:48;15.30;92.20
22173;DHT22;11252;50.596;17.648;2023-10-08T00:11:16;15.30;92.20
22173;DHT22;11252;50.596;17.648;2023-10-08T00:13:44;15.30;92.20
22173;DHT22;11252;50.596;17.648;2023-10-08T00:16:13;15.30;92.20
22173;DHT22;11252;50.596;17.648;2023-10-08T00:18:45;15.20;92.20
22173;DHT22;11252;50.596;17.648;2023-10-08T00:21:20;15.10;92.20
22173;DHT22;11252;50.596;17.648;2023-10-08T00:23:54;15.00;92.20
22173;DHT22;11252;50.596;17.648;2023-10-08T00:26:27;14.90;92.20
22173;DHT22;11252;50.596;17.648;2023-10-08T00:28:59;14.80;92.20
22173;DHT22;11252;50.596;17.648;2023-10-08T00:31:27;14.60;92.20
22173;DHT22;11252;50.596;17.648;2023-10-08T00:33:58;14.50;92.20
22173;DHT22;11252;50.596;17.648;2023-10-08T00:36:25;14.50;92.20
22173;DHT22;11252;50.596;17.648;2023-10-08T00:38:52;14.40;92.20
22173;DHT22;11252;50.596;17.648;2023-10-08T00:41:26;14.20;92.20
22173;DHT22;11252;50.596;17.648;2023-10-08T00:43:58;14.10;92.20
22173;DHT22;11252;50.596;17.648;2023-10-08T00:46:32;14.00;92.20
22173;DHT22;11252;50.596;17.648;2023-10-08T00:49:03;13.90;92.20
22173;DHT22;11252;50.596;17.648;2023-10-08T00:51:57;13.90;92.20
22173;DHT22;11252;50.596;17.648;2023-10-08T00:54:28;13.70;92.20
22173;DHT22;11252;50.596;17.648;2023-10-08T00:56:55;13.60;92.20
22173;DHT22;11252;50.596;17.648;2023-10-08T00:59:25;13.50;92.20
22173;DHT22;11252;50.596;17.648;2023-10-08T01:01:52;13.40;92.20
22173;DHT22;11252;50.596;17.648;2023-10-08T01:04:33;13.30;92.20
22173;DHT22;11252;50.596;17.648;2023-10-08T01:07:02;13.30;92.20
22173;DHT22;11252;50.596;17.648;2023-10-08T01:09:40;13.20;92.20
22173;DHT22;11252;50.596;17.648;2023-10-08T01:12:13;13.10;92.20
22173;DHT22;11252;50.596;17.648;2023-10-08T01:14:43;13.00;92.20
22173;DHT22;11252;50.596;17.648;2023-10-08T01:17:10;13.00;92.20
22173;DHT22;11252;50.596;17.648;2023-10-08T01:19:43;12.90;92.20
22173;DHT22;11252;50.596;17.648;2023-10-08T01:22:13;12.80;92.20
22173;DHT22;11252;50.596;17.648;2023-10-08T01:24:45;12.80;92.20
22173;DHT22;11252;50.596;17.648;2023-10-08T01:27:17;12.80;92.20
22173;DHT22;11252;50.596;17.648;2023-10-08T01:29:51;12.80;92.20
22173;DHT22;11252;50.596;17.648;2023-10-08T01:32:20;12.70;92.20
22173;DHT22;11252;50.596;17.648;2023-10-08T01:34:49;12.70;92.20
22173;DHT22;11252;50.596;17.648;2023-10-08T01:37:17;12.60;92.20
22173;DHT22;11252;50.596;17.648;2023-10-08T01:39:48;12.60;92.20
22173;DHT22;11252;50.596;17.648;2023-10-08T01:42:17;12.60;92.20
22173;DHT22;11252;50.596;17.648;2023-10-08T01:44:45;12.60;92.20
22173;DHT22;11252;50.596;17.648;2023-10-08T01:47:21;12.50;92.20
22173;DHT22;11252;50.596;17.648;2023-10-08T01:49:52;12.50;92.20
22173;DHT22;11252;50.596;17.648;2023-10-08T01:52:32;12.50;92.20
22173;DHT22;11252;50.596;17.648;2023-10-08T01:55:01;12.50;92.20
22173;DHT22;11252;50.596;17.648;2023-10-08T01:57:29;12.50;92.20
22173;DHT22;11252;50.596;17.648;2023-10-08T02:00:01;12.40;92.20
22173;DHT22;11252;50.596;17.648;2023-10-08T02:02:28;12.40;92.20
22173;DHT22;11252;50.596;17.648;2023-10-08T02:04:55;12.40;92.20
22173;DHT22;11252;50.596;17.648;2023-10-08T02:07:23;12.40;92.20
22173;DHT22;11252;50.596;17.648;2023-10-08T02:09:50;12.40;92.20
22173;DHT22;11252;50.596;17.648;2023-10-08T02:12:17;12.30;92.20
22173;DHT22;11252;50.596;17.648;2023-10-08T02:14:44;12.30;92.20
22173;DHT22;11252;50.596;17.648;2023-10-08T02:17:11;12.30;92.20
22173;DHT22;11252;50.596;17.648;2023-10-08T02:19:40;12.30;92.20
22173;DHT22;11252;50.596;17.648;2023-10-08T02:22:08;12.20;92.20
22173;DHT22;11252;50.596;17.648;2023-10-08T02:24:39;12.20;92.20
22173;DHT22;11252;50.596;17.648;2023-10-08T02:27:06;12.20;92.20
22173;DHT22;11252;50.596;17.648;2023-10-08T02:29:33;12.10;92.20
22173;DHT22;11252;50.596;17.648;2023-10-08T02:32:00;12.10;92.20
22173;DHT22;11252;50.596;17.648;2023-10-08T02:34:27;12.00;92.20
22173;DHT22;11252;50.596;17.648;2023-10-08T02:36:54;12.00;92.20
22173;DHT22;11252;50.596;17.648;2023-10-08T02:39:23;12.00;92.20
22173;DHT22;11252;50.596;17.648;2023-10-08T02:41:53;12.00;92.20
22173;DHT22;11252;50.596;17.648;2023-10-08T02:44:26;11.90;92.20
22173;DHT22;11252;50.596;17.648;2023-10-08T02:46:54;11.80;92.20
22173;DHT22;11252;50.596;17.648;2023-10-08T02:49:21;11.80;92.20
22173;DHT22;11252;50.596;17.648;2023-10-08T02:51:53;11.70;92.20
22173;DHT22;11252;50.596;17.648;2023-10-08T02:54:22;11.70;92.20
22173;DHT22;11252;50.596;17.648;2023-10-08T02:56:59;11.70;92.20
22173;DHT22;11252;50.596;17.648;2023-10-08T02:59:31;11.70;92.20
22173;DHT22;11252;50.596;17.648;2023-10-08T03:02:09;11.70;92.20
22173;DHT22;11252;50.596;17.648;2023-10-08T03:04:42;11.60;92.20
22173;DHT22;11252;50.596;17.648;2023-10-08T03:07:13;11.60;92.20
22173;DHT22;11252;50.596;17.648;2023-10-08T03:09:52;11.60;92.20
22173;DHT22;11252;50.596;17.648;2023-10-08T03:12:48;11.60;92.20
22173;DHT22;11252;50.596;17.648;2023-10-08T03:15:16;11.50;92.20
22173;DHT22;11252;50.596;17.648;2023-10-08T03:17:55;11.40;92.20
22173;DHT22;11252;50.596;17.648;2023-10-08T03:20:24;11.30;92.20
22173;DHT22;11252;50.596;17.648;2023-10-08T03:23:11;11.30;92.20
22173;DHT22;11252;50.596;17.648;2023-10-08T03:25:55;11.20;92.20
22173;DHT22;11252;50.596;17.648;2023-10-08T03:28:27;11.20;92.20
22173;DHT22;11252;50.596;17.648;2023-10-08T03:30:57;11.10;92.20
22173;DHT22;11252;50.596;17.648;2023-10-08T03:33:42;11.10;92.20
22173;DHT22;11252;50.596;17.648;2023-10-08T03:36:10;11.00;92.20
22173;DHT22;11252;50.596;17.648;2023-10-08T03:38:56;11.00;92.20
22173;DHT22;11252;50.596;17.648;2023-10-08T03:41:25;11.00;92.20
22173;DHT22;11252;50.596;17.648;2023-10-08T03:43:57;10.90;92.20
22173;DHT22;11252;50.596;17.648;2023-10-08T03:46:33;10.90;92.20
22173;DHT22;11252;50.596;17.648;2023-10-08T03:49:10;10.90;92.20
22173;DHT22;11252;50.596;17.648;2023-10-08T03:51:50;10.90;92.20
22173;DHT22;11252;50.596;17.648;2023-10-08T03:54:24;10.80;92.20
22173;DHT22;11252;50.596;17.648;2023-10-08T03:56:57;10.80;92.20
22173;DHT22;11252;50.596;17.648;2023-10-08T03:59:24;10.70;92.20
22173;DHT22;11252;50.596;17.648;2023-10-08T04:01:59;10.70;92.20
22173;DHT22;11252;50.596;17.648;2023-10-08T04:04:37;10.70;92.20
22173;DHT22;11252;50.596;17.648;2023-10-08T04:07:17;10.60;92.20
22173;DHT22;11252;50.596;17.648;2023-10-08T04:10:00;10.60;92.20
22173;DHT22;11252;50.596;17.648;2023-10-08T04:12:37;10.60;92.20
22173;DHT22;11252;50.596;17.648;2023-10-08T04:15:11;10.60;92.20
22173;DHT22;11252;50.596;17.648;2023-10-08T04:17:45;10.60;92.20
22173;DHT22;11252;50.596;17.648;2023-10-08T04:20:14;10.50;92.20
22173;DHT22;11252;50.596;17.648;2023-10-08T04:23:02;10.50;92.20
22173;DHT22;11252;50.596;17.648;2023-10-08T04:25:32;10.50;92.20
22173;DHT22;11252;50.596;17.648;2023-10-08T04:28:00;10.50;92.20
22173;DHT22;11252;50.596;17.648;2023-10-08T04:30:34;10.50;92.20
22173;DHT22;11252;50.596;17.648;2023-10-08T04:33:03;10.50;92.20
22173;DHT22;11252;50.596;17.648;2023-10-08T04:35:35;10.50;92.20
22173;DHT22;11252;50.596;17.648;2023-10-08T04:38:16;10.50;92.20
22173;DHT22;11252;50.596;17.648;2023-10-08T04:40:49;10.50;92.20
22173;DHT22;11252;50.596;17.648;2023-10-08T04:43:20;10.50;92.20
22173;DHT22;11252;50.596;17.648;2023-10-08T04:45:58;10.40;92.20
22173;DHT22;11252;50.596;17.648;2023-10-08T04:48:26;10.40;92.20
22173;DHT22;11252;50.596;17.648;2023-10-08T04:50:59;10.40;92.20
22173;DHT22;11252;50.596;17.648;2023-10-08T04:53:31;10.40;92.20
22173;DHT22;11252;50.596;17.648;2023-10-08T04:56:06;10.40;92.20
22173;DHT22;11252;50.596;17.648;2023-10-08T04:58:34;10.40;92.20
22173;DHT22;11252;50.596;17.648;2023-10-08T05:01:04;10.40;92.20
22173;DHT22;11252;50.596;17.648;2023-10-08T05:03:49;10.40;92.20
22173;DHT22;11252;50.596;17.648;2023-10-08T05:06:33;10.30;92.20
22173;DHT22;11252;50.596;17.648;2023-10-08T05:09:04;10.30;92.20
22173;DHT22;11252;50.596;17.648;2023-10-08T05:11:43;10.30;92.20
22173;DHT22;11252;50.596;17.648;2023-10-08T05:14:33;10.30;92.20
22173;DHT22;11252;50.596;17.648;2023-10-08T05:17:06;10.30;92.20
22173;DHT22;11252;50.596;17.648;2023-10-08T05:19:37;10.20;92.20
22173;DHT22;11252;50.596;17.648;2023-10-08T05:22:05;10.20;92.20
22173;DHT22;11252;50.596;17.648;2023-10-08T05:25:05;10.20;92.20
22173;DHT22;11252;50.596;17.648;2023-10-08T05:27:58;10.10;92.20
22173;DHT22;11252;50.596;17.648;2023-10-08T05:30:27;10.10;92.20
22173;DHT22;11252;50.596;17.648;2023-10-08T05:33:21;10.10;92.20
22173;DHT22;11252;50.596;17.648;2023-10-08T05:35:53;10.00;92.20
22173;DHT22;11252;50.596;17.648;2023-10-08T05:38:45;10.00;92.20
22173;DHT22;11252;50.596;17.648;2023-10-08T05:41:30;10.00;92.20
22173;DHT22;11252;50.596;17.648;2023-10-08T05:44:18;10.00;92.20
22173;DHT22;11252;50.596;17.648;2023-10-08T05:46:46;10.00;92.20
22173;DHT22;11252;50.596;17.648;2023-10-08T05:49:22;10.00;92.20
22173;DHT22;11252;50.596;17.648;2023-10-08T05:51:58;9.90;92.20
22173;DHT22;11252;50.596;17.648;2023-10-08T05:54:32;9.90;92.20
22173;DHT22;11252;50.596;17.648;2023-10-08T05:57:08;9.90;92.20
22173;DHT22;11252;50.596;17.648;2023-10-08T05:59:40;9.90;92.20
22173;DHT22;11252;50.596;17.648;2023-10-08T06:02:42;9.80;92.20
22173;DHT22;11252;50.596;17.648;2023-10-08T06:05:12;9.80;92.20
22173;DHT22;11252;50.596;17.648;2023-10-08T06:07:42;9.80;92.20
22173;DHT22;11252;50.596;17.648;2023-10-08T06:10:28;9.80;92.20
22173;DHT22;11252;50.596;17.648;2023-10-08T06:13:07;9.80;92.20
22173;DHT22;11252;50.596;17.648;2023-10-08T06:15:53;9.90;92.20
22173;DHT22;11252;50.596;17.648;2023-10-08T06:18:28;9.80;92.20
22173;DHT22;11252;50.596;17.648;2023-10-08T06:20:57;9.90;92.20
22173;DHT22;11252;50.596;17.648;2023-10-08T06:23:27;9.80;92.20
22173;DHT22;11252;50.596;17.648;2023-10-08T06:25:56;9.80;92.20
22173;DHT22;11252;50.596;17.648;2023-10-08T06:28:43;9.80;92.20
22173;DHT22;11252;50.596;17.648;2023-10-08T06:31:11;9.80;92.20
22173;DHT22;11252;50.596;17.648;2023-10-08T06:33:39;9.70;92.20
22173;DHT22;11252;50.596;17.648;2023-10-08T06:36:08;9.70;92.20
22173;DHT22;11252;50.596;17.648;2023-10-08T06:38:41;9.80;92.20
22173;DHT22;11252;50.596;17.648;2023-10-08T06:41:10;9.70;92.20
22173;DHT22;11252;50.596;17.648;2023-10-08T06:43:58;9.80;92.20
22173;DHT22;11252;50.596;17.648;2023-10-08T06:46:41;9.80;92.20
22173;DHT22;11252;50.596;17.648;2023-10-08T06:49:09;9.80;92.20
22173;DHT22;11252;50.596;17.648;2023-10-08T06:51:42;9.90;92.20
22173;DHT22;11252;50.596;17.648;2023-10-08T06:54:11;9.90;92.20
22173;DHT22;11252;50.596;17.648;2023-10-08T06:56:41;10.00;92.20
22173;DHT22;11252;50.596;17.648;2023-10-08T06:59:19;10.00;92.20
22173;DHT22;11252;50.596;17.648;2023-10-08T07:01:51;10.10;92.20
22173;DHT22;11252;50.596;17.648;2023-10-08T07:04:19;10.10;92.20
22173;DHT22;11252;50.596;17.648;2023-10-08T07:06:50;10.10;92.20
22173;DHT22;11252;50.596;17.648;2023-10-08T07:09:18;10.20;92.20
22173;DHT22;11252;50.596;17.648;2023-10-08T07:11:55;10.20;92.20
22173;DHT22;11252;50.596;17.648;2023-10-08T07:14:27;10.30;92.20
22173;DHT22;11252;50.596;17.648;2023-10-08T07:16:57;10.40;92.20
22173;DHT22;11252;50.596;17.648;2023-10-08T07:19:29;10.50;92.20
22173;DHT22;11252;50.596;17.648;2023-10-08T07:22:07;10.60;92.20
22173;DHT22;11252;50.596;17.648;2023-10-08T07:24:46;10.80;92.20
22173;DHT22;11252;50.596;17.648;2023-10-08T07:27:18;10.90;92.20
22173;DHT22;11252;50.596;17.648;2023-10-08T07:29:49;10.90;92.20
22173;DHT22;11252;50.596;17.648;2023-10-08T07:32:16;11.00;92.20
22173;DHT22;11252;50.596;17.648;2023-10-08T07:34:46;11.00;92.20
22173;DHT22;11252;50.596;17.648;2023-10-08T07:37:13;11.20;92.20
22173;DHT22;11252;50.596;17.648;2023-10-08T07:39:41;11.40;92.20
22173;DHT22;11252;50.596;17.648;2023-10-08T07:42:14;11.40;92.20
22173;DHT22;11252;50.596;17.648;2023-10-08T07:44:41;11.50;92.20
22173;DHT22;11252;50.596;17.648;2023-10-08T07:47:08;11.60;92.20
22173;DHT22;11252;50.596;17.648;2023-10-08T07:49:37;11.70;92.20
22173;DHT22;11252;50.596;17.648;2023-10-08T07:52:04;11.80;92.20
22173;DHT22;11252;50.596;17.648;2023-10-08T07:54:32;11.90;92.20
22173;DHT22;11252;50.596;17.648;2023-10-08T07:57:03;11.80;92.20
22173;DHT22;11252;50.596;17.648;2023-10-08T07:59:41;11.80;92.20
22173;DHT22;11252;50.596;17.648;2023-10-08T08:02:09;11.80;92.20
22173;DHT22;11252;50.596;17.648;2023-10-08T08:04:43;11.80;92.20
22173;DHT22;11252;50.596;17.648;2023-10-08T08:07:12;11.90;92.20
22173;DHT22;11252;50.596;17.648;2023-10-08T08:09:51;12.30;92.20
22173;DHT22;11252;50.596;17.648;2023-10-08T08:12:20;12.80;92.20
22173;DHT22;11252;50.596;17.648;2023-10-08T08:14:54;13.30;92.20
22173;DHT22;11252;50.596;17.648;2023-10-08T08:17:21;13.50;92.20
22173;DHT22;11252;50.596;17.648;2023-10-08T08:19:51;13.80;92.20
22173;DHT22;11252;50.596;17.648;2023-10-08T08:22:21;13.90;92.20
22173;DHT22;11252;50.596;17.648;2023-10-08T08:24:51;14.00;92.20
22173;DHT22;11252;50.596;17.648;2023-10-08T08:27:41;14.20;92.20
22173;DHT22;11252;50.596;17.648;2023-10-08T08:30:11;14.70;92.20
22173;DHT22;11252;50.596;17.648;2023-10-08T08:32:47;14.90;92.20
22173;DHT22;11252;50.596;17.648;2023-10-08T08:35:19;15.00;92.20
22173;DHT22;11252;50.596;17.648;2023-10-08T08:37:47;15.10;92.20
22173;DHT22;11252;50.596;17.648;2023-10-08T08:40:20;15.10;91.00
22173;DHT22;11252;50.596;17.648;2023-10-08T08:42:52;15.30;90.30
22173;DHT22;11252;50.596;17.648;2023-10-08T08:45:21;15.30;87.80
22173;DHT22;11252;50.596;17.648;2023-10-08T08:47:48;15.60;88.30
22173;DHT22;11252;50.596;17.648;2023-10-08T08:50:16;16.00;88.70
22173;DHT22;11252;50.596;17.648;2023-10-08T08:52:46;16.20;86.90
22173;DHT22;11252;50.596;17.648;2023-10-08T08:55:13;16.30;87.30
22173;DHT22;11252;50.596;17.648;2023-10-08T08:57:47;16.10;87.40
22173;DHT22;11252;50.596;17.648;2023-10-08T09:00:19;15.80;89.00
22173;DHT22;11252;50.596;17.648;2023-10-08T09:02:48;15.90;90.00
22173;DHT22;11252;50.596;17.648;2023-10-08T09:05:17;16.20;88.20
22173;DHT22;11252;50.596;17.648;2023-10-08T09:07:56;15.70;88.20
22173;DHT22;11252;50.596;17.648;2023-10-08T09:10:24;15.80;89.20
22173;DHT22;11252;50.596;17.648;2023-10-08T09:12:56;15.50;85.70
22173;DHT22;11252;50.596;17.648;2023-10-08T09:15:27;15.50;84.20
22173;DHT22;11252;50.596;17.648;2023-10-08T09:17:55;16.10;83.50
22173;DHT22;11252;50.596;17.648;2023-10-08T09:20:23;16.80;81.20
22173;DHT22;11252;50.596;17.648;2023-10-08T09:23:12;17.50;80.10
22173;DHT22;11252;50.596;17.648;2023-10-08T09:25:45;18.00;78.00
22173;DHT22;11252;50.596;17.648;2023-10-08T09:28:17;18.10;76.80
22173;DHT22;11252;50.596;17.648;2023-10-08T09:30:45;18.60;77.20
22173;DHT22;11252;50.596;17.648;2023-10-08T09:33:15;18.80;75.10
22173;DHT22;11252;50.596;17.648;2023-10-08T09:35:46;19.10;73.60
22173;DHT22;11252;50.596;17.648;2023-10-08T09:38:15;19.30;71.70
22173;DHT22;11252;50.596;17.648;2023-10-08T09:40:50;19.20;70.10
22173;DHT22;11252;50.596;17.648;2023-10-08T09:43:20;19.20;69.50
22173;DHT22;11252;50.596;17.648;2023-10-08T09:46:20;19.50;69.70
22173;DHT22;11252;50.596;17.648;2023-10-08T09:48:50;20.20;67.90
22173;DHT22;11252;50.596;17.648;2023-10-08T09:51:21;20.70;68.80
22173;DHT22;11252;50.596;17.648;2023-10-08T09:54:01;20.50;68.60
22173;DHT22;11252;50.596;17.648;2023-10-08T09:56:31;20.10;71.00
22173;DHT22;11252;50.596;17.648;2023-10-08T09:58:59;19.70;70.30
22173;DHT22;11252;50.596;17.648;2023-10-08T10:01:27;19.90;69.90
22173;DHT22;11252;50.596;17.648;2023-10-08T10:03:55;20.20;67.30
22173;DHT22;11252;50.596;17.648;2023-10-08T10:06:22;20.50;67.20
22173;DHT22;11252;50.596;17.648;2023-10-08T10:08:49;21.10;65.80
22173;DHT22;11252;50.596;17.648;2023-10-08T10:11:17;20.90;65.00
22173;DHT22;11252;50.596;17.648;2023-10-08T10:13:50;20.90;64.70
22173;DHT22;11252;50.596;17.648;2023-10-08T10:16:21;21.00;64.50
22173;DHT22;11252;50.596;17.648;2023-10-08T10:18:55;21.00;64.30
22173;DHT22;11252;50.596;17.648;2023-10-08T10:21:34;21.30;63.70
22173;DHT22;11252;50.596;17.648;2023-10-08T10:24:02;21.70;64.00
22173;DHT22;11252;50.596;17.648;2023-10-08T10:26:34;21.70;64.50
22173;DHT22;11252;50.596;17.648;2023-10-08T10:31:39;21.40;65.60
22173;DHT22;11252;50.596;17.648;2023-10-08T10:34:11;21.60;63.60
22173;DHT22;11252;50.596;17.648;2023-10-08T10:36:40;21.80;62.00
22173;DHT22;11252;50.596;17.648;2023-10-08T10:39:10;22.00;61.50
22173;DHT22;11252;50.596;17.648;2023-10-08T10:41:45;21.90;60.00
22173;DHT22;11252;50.596;17.648;2023-10-08T10:44:13;21.70;60.70
22173;DHT22;11252;50.596;17.648;2023-10-08T10:46:42;22.00;62.60
22173;DHT22;11252;50.596;17.648;2023-10-08T10:49:10;22.00;58.60
22173;DHT22;11252;50.596;17.648;2023-10-08T10:51:49;21.50;57.60
22173;DHT22;11252;50.596;17.648;2023-10-08T10:54:20;20.70;59.30
22173;DHT22;11252;50.596;17.648;2023-10-08T10:56:51;20.10;60.50
22173;DHT22;11252;50.596;17.648;2023-10-08T10:59:40;19.60;61.80
22173;DHT22;11252;50.596;17.648;2023-10-08T11:02:09;19.00;61.70
22173;DHT22;11252;50.596;17.648;2023-10-08T11:04:58;18.90;62.80
22173;DHT22;11252;50.596;17.648;2023-10-08T11:07:47;18.50;62.00
22173;DHT22;11252;50.596;17.648;2023-10-08T11:10:18;18.10;59.40
22173;DHT22;11252;50.596;17.648;2023-10-08T11:12:50;17.70;59.60
22173;DHT22;11252;50.596;17.648;2023-10-08T11:15:21;17.50;61.60
22173;DHT22;11252;50.596;17.648;2023-10-08T11:17:50;17.50;62.20
22173;DHT22;11252;50.596;17.648;2023-10-08T11:20:28;17.80;63.80
22173;DHT22;11252;50.596;17.648;2023-10-08T11:22:56;18.40;61.90
22173;DHT22;11252;50.596;17.648;2023-10-08T11:25:56;18.90;60.70
22173;DHT22;11252;50.596;17.648;2023-10-08T11:28:33;19.20;60.30
22173;DHT22;11252;50.596;17.648;2023-10-08T11:31:03;19.60;62.10
22173;DHT22;11252;50.596;17.648;2023-10-08T11:33:39;19.80;62.70
22173;DHT22;11252;50.596;17.648;2023-10-08T11:36:08;19.40;62.40
22173;DHT22;11252;50.596;17.648;2023-10-08T11:38:47;19.20;63.10
22173;DHT22;11252;50.596;17.648;2023-10-08T11:41:16;18.80;63.60
22173;DHT22;11252;50.596;17.648;2023-10-08T11:43:50;18.90;63.10
22173;DHT22;11252;50.596;17.648;2023-10-08T11:46:28;19.50;58.00
22173;DHT22;11252;50.596;17.648;2023-10-08T11:49:00;20.00;57.80
22173;DHT22;11252;50.596;17.648;2023-10-08T11:51:32;20.10;56.80
22173;DHT22;11252;50.596;17.648;2023-10-08T11:54:03;20.50;58.70
22173;DHT22;11252;50.596;17.648;2023-10-08T11:56:33;20.80;58.80
22173;DHT22;11252;50.596;17.648;2023-10-08T11:59:02;20.60;55.50
22173;DHT22;11252;50.596;17.648;2023-10-08T12:01:32;19.60;57.10
22173;DHT22;11252;50.596;17.648;2023-10-08T12:04:04;19.10;58.20
22173;DHT22;11252;50.596;17.648;2023-10-08T12:06:32;18.80;58.80
22173;DHT22;11252;50.596;17.648;2023-10-08T12:09:00;18.30;59.70
22173;DHT22;11252;50.596;17.648;2023-10-08T12:11:27;18.20;60.60
22173;DHT22;11252;50.596;17.648;2023-10-08T12:14:05;17.80;61.70
22173;DHT22;11252;50.596;17.648;2023-10-08T12:16:33;17.60;61.60
22173;DHT22;11252;50.596;17.648;2023-10-08T12:19:03;17.20;62.10
22173;DHT22;11252;50.596;17.648;2023-10-08T12:21:43;17.00;63.30
22173;DHT22;11252;50.596;17.648;2023-10-08T12:24:14;16.90;63.30
22173;DHT22;11252;50.596;17.648;2023-10-08T12:26:41;16.80;66.40
22173;DHT22;11252;50.596;17.648;2023-10-08T12:29:14;16.80;65.30
22173;DHT22;11252;50.596;17.648;2023-10-08T12:31:41;16.40;63.70
22173;DHT22;11252;50.596;17.648;2023-10-08T12:34:08;16.30;65.30
22173;DHT22;11252;50.596;17.648;2023-10-08T12:36:39;16.10;64.00
22173;DHT22;11252;50.596;17.648;2023-10-08T12:39:06;15.90;63.50
22173;DHT22;11252;50.596;17.648;2023-10-08T12:41:45;15.80;64.70
22173;DHT22;11252;50.596;17.648;2023-10-08T12:44:12;15.90;65.20
22173;DHT22;11252;50.596;17.648;2023-10-08T12:46:43;15.70;63.80
22173;DHT22;11252;50.596;17.648;2023-10-08T12:49:11;15.80;65.60
22173;DHT22;11252;50.596;17.648;2023-10-08T12:51:38;15.90;65.20
22173;DHT22;11252;50.596;17.648;2023-10-08T12:54:08;15.90;65.00
22173;DHT22;11252;50.596;17.648;2023-10-08T12:56:39;15.90;65.40
22173;DHT22;11252;50.596;17.648;2023-10-08T12:59:12;16.00;65.00
22173;DHT22;11252;50.596;17.648;2023-10-08T13:01:49;16.10;65.10
22173;DHT22;11252;50.596;17.648;2023-10-08T13:04:23;16.20;66.30
22173;DHT22;11252;50.596;17.648;2023-10-08T13:06:56;16.20;64.60
22173;DHT22;11252;50.596;17.648;2023-10-08T13:09:30;16.10;63.70
22173;DHT22;11252;50.596;17.648;2023-10-08T13:12:04;16.00;63.90
22173;DHT22;11252;50.596;17.648;2023-10-08T13:14:32;15.90;64.70
22173;DHT22;11252;50.596;17.648;2023-10-08T13:17:02;15.70;64.70
22173;DHT22;11252;50.596;17.648;2023-10-08T13:19:30;15.60;64.40
22173;DHT22;11252;50.596;17.648;2023-10-08T13:22:01;15.80;65.00
22173;DHT22;11252;50.596;17.648;2023-10-08T13:24:33;15.90;65.10
22173;DHT22;11252;50.596;17.648;2023-10-08T13:27:02;15.90;65.20
22173;DHT22;11252;50.596;17.648;2023-10-08T13:29:33;16.00;64.50
22173;DHT22;11252;50.596;17.648;2023-10-08T13:32:01;16.20;64.80
22173;DHT22;11252;50.596;17.648;2023-10-08T13:34:31;16.20;63.60
22173;DHT22;11252;50.596;17.648;2023-10-08T13:36:58;16.10;64.10
22173;DHT22;11252;50.596;17.648;2023-10-08T13:39:25;16.00;64.20
22173;DHT22;11252;50.596;17.648;2023-10-08T13:41:54;15.90;65.60
22173;DHT22;11252;50.596;17.648;2023-10-08T13:44:24;16.00;66.70
22173;DHT22;11252;50.596;17.648;2023-10-08T13:46:57;15.90;65.50
22173;DHT22;11252;50.596;17.648;2023-10-08T13:49:26;15.90;65.20
22173;DHT22;11252;50.596;17.648;2023-10-08T13:51:53;15.90;65.50
22173;DHT22;11252;50.596;17.648;2023-10-08T13:54:24;15.90;65.90
22173;DHT22;11252;50.596;17.648;2023-10-08T13:57:02;15.90;65.60
22173;DHT22;11252;50.596;17.648;2023-10-08T13:59:30;16.00;66.30
22173;DHT22;11252;50.596;17.648;2023-10-08T14:01:59;16.10;64.50
22173;DHT22;11252;50.596;17.648;2023-10-08T14:04:29;16.10;65.60
22173;DHT22;11252;50.596;17.648;2023-10-08T14:07:06;16.20;65.10
22173;DHT22;11252;50.596;17.648;2023-10-08T14:09:33;16.50;64.10
22173;DHT22;11252;50.596;17.648;2023-10-08T14:12:05;16.50;64.50
22173;DHT22;11252;50.596;17.648;2023-10-08T14:14:37;17.00;64.90
22173;DHT22;11252;50.596;17.648;2023-10-08T14:17:11;17.30;64.10
22173;DHT22;11252;50.596;17.648;2023-10-08T14:20:01;17.20;63.10
22173;DHT22;11252;50.596;17.648;2023-10-08T14:22:34;17.00;63.90
22173;DHT22;11252;50.596;17.648;2023-10-08T14:25:02;16.40;64.40
22173;DHT22;11252;50.596;17.648;2023-10-08T14:27:30;15.90;63.90
22173;DHT22;11252;50.596;17.648;2023-10-08T14:30:01;15.40;64.10
22173;DHT22;11252;50.596;17.648;2023-10-08T14:32:28;15.00;65.50
22173;DHT22;11252;50.596;17.648;2023-10-08T14:34:55;14.70;66.20
22173;DHT22;11252;50.596;17.648;2023-10-08T14:37:22;14.50;67.40
22173;DHT22;11252;50.596;17.648;2023-10-08T14:40:08;14.30;68.50
22173;DHT22;11252;50.596;17.648;2023-10-08T14:42:54;14.10;69.30
22173;DHT22;11252;50.596;17.648;2023-10-08T14:45:32;14.10;69.40
22173;DHT22;11252;50.596;17.648;2023-10-08T14:48:03;14.00;69.40
22173;DHT22;11252;50.596;17.648;2023-10-08T14:50:34;13.90;70.30
22173;DHT22;11252;50.596;17.648;2023-10-08T14:53:02;13.90;71.20
22173;DHT22;11252;50.596;17.648;2023-10-08T14:55:38;14.00;71.20
22173;DHT22;11252;50.596;17.648;2023-10-08T14:58:06;13.90;70.70
22173;DHT22;11252;50.596;17.648;2023-10-08T15:00:38;13.70;71.00
22173;DHT22;11252;50.596;17.648;2023-10-08T15:03:06;13.40;71.60
22173;DHT22;11252;50.596;17.648;2023-10-08T15:05:34;13.30;72.80
22173;DHT22;11252;50.596;17.648;2023-10-08T15:08:05;13.30;72.20
22173;DHT22;11252;50.596;17.648;2023-10-08T15:10:38;13.20;71.90
22173;DHT22;11252;50.596;17.648;2023-10-08T15:13:06;13.20;72.60
22173;DHT22;11252;50.596;17.648;2023-10-08T15:15:34;13.40;72.60
22173;DHT22;11252;50.596;17.648;2023-10-08T15:18:02;13.50;71.90
22173;DHT22;11252;50.596;17.648;2023-10-08T15:20:29;13.60;71.60
22173;DHT22;11252;50.596;17.648;2023-10-08T15:22:59;13.70;70.90
22173;DHT22;11252;50.596;17.648;2023-10-08T15:25:26;13.60;71.20
22173;DHT22;11252;50.596;17.648;2023-10-08T15:27:53;13.50;70.60
22173;DHT22;11252;50.596;17.648;2023-10-08T15:30:22;13.30;71.90
22173;DHT22;11252;50.596;17.648;2023-10-08T15:32:50;13.30;72.70
22173;DHT22;11252;50.596;17.648;2023-10-08T15:35:20;13.30;72.90
22173;DHT22;11252;50.596;17.648;2023-10-08T15:37:52;13.10;72.90
22173;DHT22;11252;50.596;17.648;2023-10-08T15:40:19;13.10;73.90
22173;DHT22;11252;50.596;17.648;2023-10-08T15:42:52;13.00;74.20
22173;DHT22;11252;50.596;17.648;2023-10-08T15:45:22;12.90;74.20
22173;DHT22;11252;50.596;17.648;2023-10-08T15:47:51;12.90;74.70
22173;DHT22;11252;50.596;17.648;2023-10-08T15:50:19;12.80;74.50
22173;DHT22;11252;50.596;17.648;2023-10-08T15:52:54;12.70;74.20